sensor_id;sensor_type;location;lat;lon;timestamp;P1;durP1;ratioP1;P2;durP2;ratioP2
32734;SDS011;19112;51.076;3.706;2023-05-19T00:01:45;32.40;;;12.43;;
32734;SDS011;19112;51.076;3.706;2023-05-19T00:04:16;31.83;;;12.38;;
32734;SDS011;19112;51.076;3.706;2023-05-19T00:06:43;29.90;;;12.88;;
32734;SDS011;19112;51.076;3.706;2023-05-19T00:09:15;33.78;;;13.10;;
32734;SDS011;19112;51.076;3.706;2023-05-19T00:11:42;33.58;;;13.90;;
32734;SDS011;19112;51.076;3.706;2023-05-19T00:14:08;31.38;;;13.60;;
32734;SDS011;19112;51.076;3.706;2023-05-19T00:16:34;32.20;;;13.15;;
32734;SDS011;19112;51.076;3.706;2023-05-19T00:19:02;30.60;;;13.02;;
32734;SDS011;19112;51.076;3.706;2023-05-19T00:21:30;34.35;;;14.63;;
32734;SDS011;19112;51.076;3.706;2023-05-19T00:23:56;36.97;;;14.38;;
32734;SDS011;19112;51.076;3.706;2023-05-19T00:26:23;34.72;;;14.35;;
32734;SDS011;19112;51.076;3.706;2023-05-19T00:28:51;34.10;;;14.32;;
32734;SDS011;19112;51.076;3.706;2023-05-19T00:31:17;29.05;;;13.80;;
32734;SDS011;19112;51.076;3.706;2023-05-19T00:33:44;34.03;;;14.23;;
32734;SDS011;19112;51.076;3.706;2023-05-19T00:36:10;38.05;;;15.20;;
32734;SDS011;19112;51.076;3.706;2023-05-19T00:38:36;33.50;;;14.88;;
32734;SDS011;19112;51.076;3.706;2023-05-19T00:41:03;37.00;;;13.52;;
32734;SDS011;19112;51.076;3.706;2023-05-19T00:43:29;36.67;;;15.70;;
32734;SDS011;19112;51.076;3.706;2023-05-19T00:45:58;33.35;;;15.85;;
32734;SDS011;19112;51.076;3.706;2023-05-19T00:48:25;36.33;;;14.98;;
32734;SDS011;19112;51.076;3.706;2023-05-19T00:50:55;32.10;;;14.57;;
32734;SDS011;19112;51.076;3.706;2023-05-19T00:53:26;45.00;;;17.17;;
32734;SDS011;19112;51.076;3.706;2023-05-19T00:55:52;35.25;;;15.35;;
32734;SDS011;19112;51.076;3.706;2023-05-19T00:58:18;32.35;;;14.18;;
32734;SDS011;19112;51.076;3.706;2023-05-19T01:00:44;34.30;;;15.43;;
32734;SDS011;19112;51.076;3.706;2023-05-19T01:03:10;32.63;;;15.02;;
32734;SDS011;19112;51.076;3.706;2023-05-19T01:05:37;34.30;;;15.68;;
32734;SDS011;19112;51.076;3.706;2023-05-19T01:08:05;33.75;;;15.30;;
32734;SDS011;19112;51.076;3.706;2023-05-19T01:10:32;32.47;;;14.90;;
32734;SDS011;19112;51.076;3.706;2023-05-19T01:12:59;36.70;;;17.65;;
32734;SDS011;19112;51.076;3.706;2023-05-19T01:15:26;38.45;;;17.13;;
32734;SDS011;19112;51.076;3.706;2023-05-19T01:18:13;37.60;;;16.45;;
32734;SDS011;19112;51.076;3.706;2023-05-19T01:20:46;38.20;;;16.75;;
32734;SDS011;19112;51.076;3.706;2023-05-19T01:32:06;38.70;;;16.83;;
32734;SDS011;19112;51.076;3.706;2023-05-19T01:34:33;34.40;;;16.33;;
32734;SDS011;19112;51.076;3.706;2023-05-19T01:37:08;37.13;;;16.35;;
32734;SDS011;19112;51.076;3.706;2023-05-19T01:39:35;37.03;;;15.65;;
32734;SDS011;19112;51.076;3.706;2023-05-19T01:42:02;35.33;;;16.17;;
32734;SDS011;19112;51.076;3.706;2023-05-19T01:44:29;38.38;;;15.65;;
32734;SDS011;19112;51.076;3.706;2023-05-19T01:46:56;39.10;;;15.95;;
32734;SDS011;19112;51.076;3.706;2023-05-19T01:49:24;31.08;;;14.63;;
32734;SDS011;19112;51.076;3.706;2023-05-19T01:51:49;35.35;;;15.43;;
32734;SDS011;19112;51.076;3.706;2023-05-19T01:54:16;34.30;;;15.43;;
32734;SDS011;19112;51.076;3.706;2023-05-19T01:56:49;32.70;;;15.32;;
32734;SDS011;19112;51.076;3.706;2023-05-19T02:09:21;36.22;;;15.07;;
32734;SDS011;19112;51.076;3.706;2023-05-19T02:11:54;32.43;;;15.10;;
32734;SDS011;19112;51.076;3.706;2023-05-19T02:14:34;31.92;;;13.80;;
32734;SDS011;19112;51.076;3.706;2023-05-19T02:17:23;34.60;;;14.02;;
32734;SDS011;19112;51.076;3.706;2023-05-19T02:19:57;31.15;;;14.30;;
32734;SDS011;19112;51.076;3.706;2023-05-19T02:22:23;30.30;;;14.35;;
32734;SDS011;19112;51.076;3.706;2023-05-19T02:24:50;32.72;;;15.20;;
32734;SDS011;19112;51.076;3.706;2023-05-19T02:27:16;35.67;;;14.52;;
32734;SDS011;19112;51.076;3.706;2023-05-19T02:29:42;35.55;;;14.70;;
32734;SDS011;19112;51.076;3.706;2023-05-19T02:32:09;30.02;;;13.27;;
32734;SDS011;19112;51.076;3.706;2023-05-19T02:34:35;36.00;;;14.27;;
32734;SDS011;19112;51.076;3.706;2023-05-19T02:37:01;31.35;;;14.73;;
32734;SDS011;19112;51.076;3.706;2023-05-19T02:39:27;41.45;;;17.45;;
32734;SDS011;19112;51.076;3.706;2023-05-19T02:41:55;38.38;;;17.67;;
32734;SDS011;19112;51.076;3.706;2023-05-19T02:44:20;41.05;;;17.83;;
32734;SDS011;19112;51.076;3.706;2023-05-19T02:46:46;49.03;;;19.00;;
32734;SDS011;19112;51.076;3.706;2023-05-19T02:49:12;36.72;;;16.98;;
32734;SDS011;19112;51.076;3.706;2023-05-19T02:51:38;45.00;;;18.73;;
32734;SDS011;19112;51.076;3.706;2023-05-19T02:54:04;36.97;;;16.60;;
32734;SDS011;19112;51.076;3.706;2023-05-19T02:56:30;39.30;;;18.08;;
32734;SDS011;19112;51.076;3.706;2023-05-19T02:58:56;37.53;;;17.95;;
32734;SDS011;19112;51.076;3.706;2023-05-19T03:01:22;36.05;;;16.58;;
32734;SDS011;19112;51.076;3.706;2023-05-19T03:03:48;37.05;;;17.58;;
32734;SDS011;19112;51.076;3.706;2023-05-19T03:06:14;38.92;;;16.00;;
32734;SDS011;19112;51.076;3.706;2023-05-19T03:08:42;36.53;;;15.63;;
32734;SDS011;19112;51.076;3.706;2023-05-19T03:11:08;40.83;;;17.55;;
32734;SDS011;19112;51.076;3.706;2023-05-19T03:13:34;41.25;;;18.65;;
32734;SDS011;19112;51.076;3.706;2023-05-19T03:16:00;33.67;;;16.27;;
32734;SDS011;19112;51.076;3.706;2023-05-19T03:18:27;44.83;;;16.98;;
32734;SDS011;19112;51.076;3.706;2023-05-19T03:20:53;37.53;;;16.85;;
32734;SDS011;19112;51.076;3.706;2023-05-19T03:23:19;34.78;;;15.98;;
32734;SDS011;19112;51.076;3.706;2023-05-19T03:25:46;40.15;;;17.80;;
32734;SDS011;19112;51.076;3.706;2023-05-19T03:28:12;34.85;;;15.82;;
32734;SDS011;19112;51.076;3.706;2023-05-19T03:30:37;38.70;;;15.13;;
32734;SDS011;19112;51.076;3.706;2023-05-19T03:33:03;32.13;;;14.43;;
32734;SDS011;19112;51.076;3.706;2023-05-19T03:35:29;32.45;;;14.73;;
32734;SDS011;19112;51.076;3.706;2023-05-19T03:37:55;34.53;;;14.73;;
32734;SDS011;19112;51.076;3.706;2023-05-19T03:40:21;34.40;;;14.80;;
32734;SDS011;19112;51.076;3.706;2023-05-19T03:42:47;38.00;;;14.38;;
32734;SDS011;19112;51.076;3.706;2023-05-19T03:45:13;34.47;;;15.02;;
32734;SDS011;19112;51.076;3.706;2023-05-19T03:47:39;33.40;;;14.18;;
32734;SDS011;19112;51.076;3.706;2023-05-19T03:50:05;30.63;;;14.00;;
32734;SDS011;19112;51.076;3.706;2023-05-19T03:52:31;31.85;;;13.73;;
32734;SDS011;19112;51.076;3.706;2023-05-19T03:54:57;29.50;;;13.20;;
32734;SDS011;19112;51.076;3.706;2023-05-19T03:57:23;37.60;;;13.90;;
32734;SDS011;19112;51.076;3.706;2023-05-19T03:59:49;30.35;;;13.77;;
32734;SDS011;19112;51.076;3.706;2023-05-19T04:02:15;29.17;;;13.90;;
32734;SDS011;19112;51.076;3.706;2023-05-19T04:04:41;36.53;;;14.23;;
32734;SDS011;19112;51.076;3.706;2023-05-19T04:07:06;34.03;;;14.13;;
32734;SDS011;19112;51.076;3.706;2023-05-19T04:09:32;29.88;;;13.32;;
32734;SDS011;19112;51.076;3.706;2023-05-19T04:11:59;26.67;;;12.43;;
32734;SDS011;19112;51.076;3.706;2023-05-19T04:14:29;32.97;;;14.13;;
32734;SDS011;19112;51.076;3.706;2023-05-19T04:16:55;34.72;;;15.45;;
32734;SDS011;19112;51.076;3.706;2023-05-19T04:19:21;36.40;;;15.27;;
32734;SDS011;19112;51.076;3.706;2023-05-19T04:21:47;31.40;;;13.23;;
32734;SDS011;19112;51.076;3.706;2023-05-19T04:24:13;33.10;;;14.88;;
32734;SDS011;19112;51.076;3.706;2023-05-19T04:26:39;30.70;;;13.95;;
32734;SDS011;19112;51.076;3.706;2023-05-19T04:29:06;29.17;;;13.65;;
32734;SDS011;19112;51.076;3.706;2023-05-19T04:31:32;27.23;;;13.27;;
32734;SDS011;19112;51.076;3.706;2023-05-19T04:33:59;34.42;;;14.93;;
32734;SDS011;19112;51.076;3.706;2023-05-19T04:36:25;33.45;;;14.68;;
32734;SDS011;19112;51.076;3.706;2023-05-19T04:38:51;31.13;;;13.10;;
32734;SDS011;19112;51.076;3.706;2023-05-19T04:41:19;33.42;;;13.20;;
32734;SDS011;19112;51.076;3.706;2023-05-19T04:43:45;33.95;;;13.90;;
32734;SDS011;19112;51.076;3.706;2023-05-19T04:46:12;33.33;;;13.75;;
32734;SDS011;19112;51.076;3.706;2023-05-19T04:48:38;33.28;;;14.38;;
32734;SDS011;19112;51.076;3.706;2023-05-19T04:51:05;30.55;;;13.43;;
32734;SDS011;19112;51.076;3.706;2023-05-19T04:53:31;32.40;;;13.40;;
32734;SDS011;19112;51.076;3.706;2023-05-19T04:55:57;36.60;;;13.70;;
32734;SDS011;19112;51.076;3.706;2023-05-19T04:58:25;32.72;;;13.27;;
32734;SDS011;19112;51.076;3.706;2023-05-19T05:00:51;29.80;;;13.13;;
32734;SDS011;19112;51.076;3.706;2023-05-19T05:03:19;31.00;;;12.55;;
32734;SDS011;19112;51.076;3.706;2023-05-19T05:05:47;28.80;;;14.70;;
32734;SDS011;19112;51.076;3.706;2023-05-19T05:08:13;32.65;;;13.70;;
32734;SDS011;19112;51.076;3.706;2023-05-19T05:10:40;32.85;;;13.73;;
32734;SDS011;19112;51.076;3.706;2023-05-19T05:13:06;35.58;;;13.45;;
32734;SDS011;19112;51.076;3.706;2023-05-19T05:15:32;31.75;;;13.18;;
32734;SDS011;19112;51.076;3.706;2023-05-19T05:17:59;30.70;;;13.65;;
32734;SDS011;19112;51.076;3.706;2023-05-19T05:20:25;29.40;;;12.13;;
32734;SDS011;19112;51.076;3.706;2023-05-19T05:22:52;28.98;;;12.32;;
32734;SDS011;19112;51.076;3.706;2023-05-19T05:25:18;27.85;;;13.20;;
32734;SDS011;19112;51.076;3.706;2023-05-19T05:27:45;29.38;;;12.40;;
32734;SDS011;19112;51.076;3.706;2023-05-19T05:30:11;29.40;;;12.70;;
32734;SDS011;19112;51.076;3.706;2023-05-19T05:32:37;31.98;;;13.45;;
32734;SDS011;19112;51.076;3.706;2023-05-19T05:35:03;27.65;;;12.15;;
32734;SDS011;19112;51.076;3.706;2023-05-19T05:37:29;30.83;;;12.70;;
32734;SDS011;19112;51.076;3.706;2023-05-19T05:39:55;29.58;;;12.13;;
32734;SDS011;19112;51.076;3.706;2023-05-19T05:42:21;24.90;;;11.07;;
32734;SDS011;19112;51.076;3.706;2023-05-19T05:44:47;29.05;;;11.35;;
32734;SDS011;19112;51.076;3.706;2023-05-19T05:47:13;26.77;;;10.20;;
32734;SDS011;19112;51.076;3.706;2023-05-19T05:49:39;26.95;;;10.80;;
32734;SDS011;19112;51.076;3.706;2023-05-19T05:52:07;26.67;;;9.93;;
32734;SDS011;19112;51.076;3.706;2023-05-19T05:54:35;29.35;;;10.73;;
32734;SDS011;19112;51.076;3.706;2023-05-19T05:57:01;23.60;;;10.75;;
32734;SDS011;19112;51.076;3.706;2023-05-19T05:59:28;29.77;;;10.90;;
32734;SDS011;19112;51.076;3.706;2023-05-19T06:01:53;29.00;;;9.77;;
32734;SDS011;19112;51.076;3.706;2023-05-19T06:04:19;29.40;;;10.50;;
32734;SDS011;19112;51.076;3.706;2023-05-19T06:06:45;25.35;;;10.65;;
32734;SDS011;19112;51.076;3.706;2023-05-19T06:09:11;25.92;;;10.25;;
32734;SDS011;19112;51.076;3.706;2023-05-19T06:11:37;25.08;;;10.32;;
32734;SDS011;19112;51.076;3.706;2023-05-19T06:14:02;27.83;;;10.70;;
32734;SDS011;19112;51.076;3.706;2023-05-19T06:16:28;30.10;;;12.00;;
32734;SDS011;19112;51.076;3.706;2023-05-19T06:18:54;29.25;;;10.52;;
32734;SDS011;19112;51.076;3.706;2023-05-19T06:21:20;30.90;;;10.98;;
32734;SDS011;19112;51.076;3.706;2023-05-19T06:23:46;25.98;;;10.68;;
32734;SDS011;19112;51.076;3.706;2023-05-19T06:26:12;26.75;;;10.60;;
32734;SDS011;19112;51.076;3.706;2023-05-19T06:28:39;29.67;;;10.20;;
32734;SDS011;19112;51.076;3.706;2023-05-19T06:31:05;25.33;;;10.68;;
32734;SDS011;19112;51.076;3.706;2023-05-19T06:33:31;30.38;;;10.52;;
32734;SDS011;19112;51.076;3.706;2023-05-19T06:35:56;24.05;;;10.30;;
32734;SDS011;19112;51.076;3.706;2023-05-19T06:38:23;25.30;;;10.27;;
32734;SDS011;19112;51.076;3.706;2023-05-19T06:40:49;31.30;;;10.98;;
32734;SDS011;19112;51.076;3.706;2023-05-19T06:43:15;25.83;;;10.50;;
32734;SDS011;19112;51.076;3.706;2023-05-19T06:45:41;26.27;;;11.75;;
32734;SDS011;19112;51.076;3.706;2023-05-19T06:48:07;25.17;;;11.48;;
32734;SDS011;19112;51.076;3.706;2023-05-19T06:50:33;25.70;;;11.02;;
32734;SDS011;19112;51.076;3.706;2023-05-19T06:52:59;26.02;;;10.75;;
32734;SDS011;19112;51.076;3.706;2023-05-19T06:55:25;27.65;;;10.60;;
32734;SDS011;19112;51.076;3.706;2023-05-19T06:57:51;27.77;;;11.07;;
32734;SDS011;19112;51.076;3.706;2023-05-19T07:00:17;26.05;;;10.77;;
32734;SDS011;19112;51.076;3.706;2023-05-19T07:02:43;25.83;;;11.32;;
32734;SDS011;19112;51.076;3.706;2023-05-19T07:05:09;29.95;;;11.68;;
32734;SDS011;19112;51.076;3.706;2023-05-19T07:07:35;27.30;;;12.05;;
32734;SDS011;19112;51.076;3.706;2023-05-19T07:10:00;27.05;;;10.43;;
32734;SDS011;19112;51.076;3.706;2023-05-19T07:12:26;31.48;;;12.52;;
32734;SDS011;19112;51.076;3.706;2023-05-19T07:14:52;25.40;;;11.55;;
32734;SDS011;19112;51.076;3.706;2023-05-19T07:17:18;25.38;;;11.00;;
32734;SDS011;19112;51.076;3.706;2023-05-19T07:19:44;29.25;;;10.93;;
32734;SDS011;19112;51.076;3.706;2023-05-19T07:22:10;28.75;;;11.10;;
32734;SDS011;19112;51.076;3.706;2023-05-19T07:24:35;24.92;;;10.57;;
32734;SDS011;19112;51.076;3.706;2023-05-19T07:27:01;32.15;;;10.73;;
32734;SDS011;19112;51.076;3.706;2023-05-19T07:29:27;27.80;;;10.50;;
32734;SDS011;19112;51.076;3.706;2023-05-19T07:31:53;29.10;;;12.15;;
32734;SDS011;19112;51.076;3.706;2023-05-19T07:34:22;37.40;;;14.93;;
32734;SDS011;19112;51.076;3.706;2023-05-19T07:36:49;37.20;;;15.93;;
32734;SDS011;19112;51.076;3.706;2023-05-19T07:39:15;40.40;;;20.08;;
32734;SDS011;19112;51.076;3.706;2023-05-19T07:41:42;49.83;;;27.33;;
32734;SDS011;19112;51.076;3.706;2023-05-19T07:44:08;80.97;;;45.45;;
32734;SDS011;19112;51.076;3.706;2023-05-19T07:46:34;77.55;;;41.00;;
32734;SDS011;19112;51.076;3.706;2023-05-19T07:49:02;71.20;;;38.08;;
32734;SDS011;19112;51.076;3.706;2023-05-19T07:51:28;86.63;;;50.97;;
32734;SDS011;19112;51.076;3.706;2023-05-19T07:53:54;98.05;;;53.33;;
32734;SDS011;19112;51.076;3.706;2023-05-19T07:56:20;102.93;;;60.22;;
32734;SDS011;19112;51.076;3.706;2023-05-19T07:58:46;139.05;;;75.88;;
32734;SDS011;19112;51.076;3.706;2023-05-19T08:01:11;112.90;;;61.17;;
32734;SDS011;19112;51.076;3.706;2023-05-19T08:03:37;99.22;;;50.80;;
32734;SDS011;19112;51.076;3.706;2023-05-19T08:06:03;101.32;;;49.05;;
32734;SDS011;19112;51.076;3.706;2023-05-19T08:08:29;74.45;;;39.33;;
32734;SDS011;19112;51.076;3.706;2023-05-19T08:11:00;91.35;;;48.95;;
32734;SDS011;19112;51.076;3.706;2023-05-19T08:13:28;110.68;;;56.30;;
32734;SDS011;19112;51.076;3.706;2023-05-19T08:15:54;99.32;;;52.17;;
32734;SDS011;19112;51.076;3.706;2023-05-19T08:18:24;59.13;;;28.92;;
32734;SDS011;19112;51.076;3.706;2023-05-19T08:20:50;34.42;;;14.82;;
32734;SDS011;19112;51.076;3.706;2023-05-19T08:23:16;30.60;;;11.80;;
32734;SDS011;19112;51.076;3.706;2023-05-19T08:25:42;31.30;;;11.90;;
32734;SDS011;19112;51.076;3.706;2023-05-19T08:28:08;40.05;;;16.13;;
32734;SDS011;19112;51.076;3.706;2023-05-19T08:30:34;28.90;;;13.15;;
32734;SDS011;19112;51.076;3.706;2023-05-19T08:33:00;35.90;;;16.48;;
32734;SDS011;19112;51.076;3.706;2023-05-19T08:35:26;40.53;;;18.52;;
32734;SDS011;19112;51.076;3.706;2023-05-19T08:37:52;52.22;;;25.23;;
32734;SDS011;19112;51.076;3.706;2023-05-19T08:40:19;69.60;;;36.42;;
32734;SDS011;19112;51.076;3.706;2023-05-19T08:42:45;59.25;;;28.23;;
32734;SDS011;19112;51.076;3.706;2023-05-19T08:45:12;51.53;;;24.70;;
32734;SDS011;19112;51.076;3.706;2023-05-19T08:47:41;60.28;;;29.15;;
32734;SDS011;19112;51.076;3.706;2023-05-19T08:50:11;57.22;;;26.85;;
32734;SDS011;19112;51.076;3.706;2023-05-19T08:56:00;60.65;;;32.97;;
32734;SDS011;19112;51.076;3.706;2023-05-19T08:58:38;55.88;;;27.58;;
32734;SDS011;19112;51.076;3.706;2023-05-19T09:01:12;59.53;;;29.05;;
32734;SDS011;19112;51.076;3.706;2023-05-19T09:03:42;47.47;;;21.75;;
32734;SDS011;19112;51.076;3.706;2023-05-19T09:06:10;45.03;;;20.05;;
32734;SDS011;19112;51.076;3.706;2023-05-19T09:08:37;50.10;;;23.08;;
32734;SDS011;19112;51.076;3.706;2023-05-19T09:11:05;49.10;;;25.15;;
32734;SDS011;19112;51.076;3.706;2023-05-19T09:13:31;55.95;;;24.95;;
32734;SDS011;19112;51.076;3.706;2023-05-19T09:15:57;47.33;;;23.52;;
32734;SDS011;19112;51.076;3.706;2023-05-19T09:18:24;45.08;;;20.52;;
32734;SDS011;19112;51.076;3.706;2023-05-19T09:20:50;43.97;;;20.92;;
32734;SDS011;19112;51.076;3.706;2023-05-19T09:23:28;38.50;;;18.52;;
32734;SDS011;19112;51.076;3.706;2023-05-19T09:25:59;45.90;;;19.77;;
32734;SDS011;19112;51.076;3.706;2023-05-19T09:28:32;52.63;;;24.85;;
32734;SDS011;19112;51.076;3.706;2023-05-19T09:33:26;56.83;;;28.80;;
32734;SDS011;19112;51.076;3.706;2023-05-19T09:35:53;52.92;;;27.20;;
32734;SDS011;19112;51.076;3.706;2023-05-19T09:38:23;54.35;;;27.80;;
32734;SDS011;19112;51.076;3.706;2023-05-19T09:40:51;48.28;;;23.27;;
32734;SDS011;19112;51.076;3.706;2023-05-19T09:43:20;50.30;;;24.15;;
32734;SDS011;19112;51.076;3.706;2023-05-19T09:45:46;44.42;;;21.58;;
32734;SDS011;19112;51.076;3.706;2023-05-19T09:48:16;42.33;;;20.65;;
32734;SDS011;19112;51.076;3.706;2023-05-19T09:50:42;37.83;;;14.95;;
32734;SDS011;19112;51.076;3.706;2023-05-19T09:53:11;30.08;;;13.45;;
32734;SDS011;19112;51.076;3.706;2023-05-19T09:55:38;33.22;;;13.88;;
32734;SDS011;19112;51.076;3.706;2023-05-19T09:58:05;27.73;;;11.57;;
32734;SDS011;19112;51.076;3.706;2023-05-19T10:00:31;29.27;;;11.73;;
32734;SDS011;19112;51.076;3.706;2023-05-19T10:02:58;27.83;;;11.32;;
32734;SDS011;19112;51.076;3.706;2023-05-19T10:05:25;27.13;;;10.40;;
32734;SDS011;19112;51.076;3.706;2023-05-19T10:07:53;27.20;;;11.18;;
32734;SDS011;19112;51.076;3.706;2023-05-19T10:10:20;25.35;;;11.43;;
32734;SDS011;19112;51.076;3.706;2023-05-19T10:12:49;27.70;;;12.63;;
32734;SDS011;19112;51.076;3.706;2023-05-19T10:15:16;26.98;;;11.32;;
32734;SDS011;19112;51.076;3.706;2023-05-19T10:17:44;23.70;;;9.60;;
32734;SDS011;19112;51.076;3.706;2023-05-19T10:20:11;34.38;;;9.00;;
32734;SDS011;19112;51.076;3.706;2023-05-19T10:22:39;26.85;;;10.23;;
32734;SDS011;19112;51.076;3.706;2023-05-19T10:25:07;25.70;;;9.13;;
32734;SDS011;19112;51.076;3.706;2023-05-19T10:27:39;25.60;;;9.43;;
32734;SDS011;19112;51.076;3.706;2023-05-19T10:30:16;21.00;;;8.02;;
32734;SDS011;19112;51.076;3.706;2023-05-19T10:32:49;22.50;;;9.70;;
32734;SDS011;19112;51.076;3.706;2023-05-19T10:35:23;25.45;;;9.18;;
32734;SDS011;19112;51.076;3.706;2023-05-19T10:38:31;28.17;;;10.52;;
32734;SDS011;19112;51.076;3.706;2023-05-19T10:41:03;24.02;;;9.80;;
32734;SDS011;19112;51.076;3.706;2023-05-19T10:46:38;40.72;;;14.50;;
32734;SDS011;19112;51.076;3.706;2023-05-19T10:49:08;33.45;;;11.68;;
32734;SDS011;19112;51.076;3.706;2023-05-19T10:51:34;24.45;;;9.63;;
32734;SDS011;19112;51.076;3.706;2023-05-19T10:54:10;25.73;;;9.00;;
32734;SDS011;19112;51.076;3.706;2023-05-19T10:56:40;24.77;;;7.70;;
32734;SDS011;19112;51.076;3.706;2023-05-19T10:59:30;26.65;;;8.65;;
32734;SDS011;19112;51.076;3.706;2023-05-19T11:02:04;19.77;;;7.03;;
32734;SDS011;19112;51.076;3.706;2023-05-19T11:04:46;21.63;;;7.63;;
32734;SDS011;19112;51.076;3.706;2023-05-19T11:07:17;23.80;;;8.48;;
32734;SDS011;19112;51.076;3.706;2023-05-19T11:09:52;26.92;;;8.45;;
32734;SDS011;19112;51.076;3.706;2023-05-19T11:12:21;26.38;;;7.22;;
32734;SDS011;19112;51.076;3.706;2023-05-19T11:14:51;26.80;;;8.15;;
32734;SDS011;19112;51.076;3.706;2023-05-19T11:17:18;24.73;;;7.72;;
32734;SDS011;19112;51.076;3.706;2023-05-19T11:19:51;21.25;;;7.75;;
32734;SDS011;19112;51.076;3.706;2023-05-19T11:22:23;23.77;;;7.05;;
32734;SDS011;19112;51.076;3.706;2023-05-19T11:24:52;22.65;;;6.15;;
32734;SDS011;19112;51.076;3.706;2023-05-19T11:27:34;17.23;;;5.43;;
32734;SDS011;19112;51.076;3.706;2023-05-19T11:32:39;18.00;;;4.75;;
32734;SDS011;19112;51.076;3.706;2023-05-19T11:35:08;14.75;;;4.50;;
32734;SDS011;19112;51.076;3.706;2023-05-19T11:37:35;20.73;;;6.18;;
32734;SDS011;19112;51.076;3.706;2023-05-19T11:40:01;15.50;;;3.97;;
32734;SDS011;19112;51.076;3.706;2023-05-19T11:42:30;16.90;;;3.83;;
32734;SDS011;19112;51.076;3.706;2023-05-19T11:44:58;14.55;;;4.10;;
32734;SDS011;19112;51.076;3.706;2023-05-19T11:47:24;17.70;;;4.43;;
32734;SDS011;19112;51.076;3.706;2023-05-19T11:49:53;13.65;;;4.38;;
32734;SDS011;19112;51.076;3.706;2023-05-19T11:52:23;17.08;;;4.63;;
32734;SDS011;19112;51.076;3.706;2023-05-19T11:54:51;18.38;;;4.90;;
32734;SDS011;19112;51.076;3.706;2023-05-19T11:57:17;18.17;;;4.57;;
32734;SDS011;19112;51.076;3.706;2023-05-19T11:59:43;17.63;;;5.38;;
32734;SDS011;19112;51.076;3.706;2023-05-19T12:04:46;14.23;;;4.85;;
32734;SDS011;19112;51.076;3.706;2023-05-19T12:07:22;19.52;;;7.00;;
32734;SDS011;19112;51.076;3.706;2023-05-19T12:09:51;17.65;;;5.38;;
32734;SDS011;19112;51.076;3.706;2023-05-19T12:12:19;18.90;;;6.28;;
32734;SDS011;19112;51.076;3.706;2023-05-19T12:14:48;19.30;;;6.72;;
32734;SDS011;19112;51.076;3.706;2023-05-19T12:17:16;19.95;;;6.70;;
32734;SDS011;19112;51.076;3.706;2023-05-19T12:19:46;20.05;;;6.53;;
32734;SDS011;19112;51.076;3.706;2023-05-19T12:22:14;19.10;;;7.28;;
32734;SDS011;19112;51.076;3.706;2023-05-19T12:24:41;15.25;;;6.22;;
32734;SDS011;19112;51.076;3.706;2023-05-19T12:29:52;21.85;;;6.18;;
32734;SDS011;19112;51.076;3.706;2023-05-19T12:32:23;22.50;;;7.15;;
32734;SDS011;19112;51.076;3.706;2023-05-19T12:34:54;17.38;;;6.95;;
32734;SDS011;19112;51.076;3.706;2023-05-19T12:37:21;20.58;;;6.95;;
32734;SDS011;19112;51.076;3.706;2023-05-19T12:39:50;20.63;;;6.97;;
32734;SDS011;19112;51.076;3.706;2023-05-19T12:42:16;22.73;;;6.30;;
32734;SDS011;19112;51.076;3.706;2023-05-19T12:44:46;21.75;;;7.80;;
32734;SDS011;19112;51.076;3.706;2023-05-19T12:47:16;20.00;;;7.65;;
32734;SDS011;19112;51.076;3.706;2023-05-19T12:49:53;19.75;;;6.05;;
32734;SDS011;19112;51.076;3.706;2023-05-19T12:52:22;19.50;;;5.80;;
32734;SDS011;19112;51.076;3.706;2023-05-19T12:54:49;18.40;;;7.00;;
32734;SDS011;19112;51.076;3.706;2023-05-19T12:57:26;21.23;;;8.23;;
32734;SDS011;19112;51.076;3.706;2023-05-19T12:59:59;19.42;;;6.40;;
32734;SDS011;19112;51.076;3.706;2023-05-19T13:02:29;24.38;;;6.68;;
32734;SDS011;19112;51.076;3.706;2023-05-19T13:04:55;19.88;;;6.15;;
32734;SDS011;19112;51.076;3.706;2023-05-19T13:07:22;21.77;;;7.55;;
32734;SDS011;19112;51.076;3.706;2023-05-19T13:09:48;25.08;;;6.22;;
32734;SDS011;19112;51.076;3.706;2023-05-19T13:12:14;19.05;;;6.18;;
32734;SDS011;19112;51.076;3.706;2023-05-19T13:14:40;16.88;;;6.32;;
32734;SDS011;19112;51.076;3.706;2023-05-19T13:17:06;24.85;;;7.03;;
32734;SDS011;19112;51.076;3.706;2023-05-19T13:19:32;21.08;;;6.97;;
32734;SDS011;19112;51.076;3.706;2023-05-19T13:21:58;25.13;;;8.45;;
32734;SDS011;19112;51.076;3.706;2023-05-19T13:24:23;20.58;;;7.18;;
32734;SDS011;19112;51.076;3.706;2023-05-19T13:26:50;22.92;;;7.07;;
32734;SDS011;19112;51.076;3.706;2023-05-19T13:29:16;20.38;;;6.95;;
32734;SDS011;19112;51.076;3.706;2023-05-19T13:31:42;27.17;;;6.80;;
32734;SDS011;19112;51.076;3.706;2023-05-19T13:34:08;18.05;;;6.93;;
32734;SDS011;19112;51.076;3.706;2023-05-19T13:36:33;20.77;;;6.68;;
32734;SDS011;19112;51.076;3.706;2023-05-19T13:39:00;27.70;;;7.18;;
32734;SDS011;19112;51.076;3.706;2023-05-19T13:41:26;23.23;;;7.15;;
32734;SDS011;19112;51.076;3.706;2023-05-19T13:43:53;22.25;;;6.60;;
32734;SDS011;19112;51.076;3.706;2023-05-19T13:46:24;17.88;;;6.03;;
32734;SDS011;19112;51.076;3.706;2023-05-19T13:48:51;19.38;;;6.18;;
32734;SDS011;19112;51.076;3.706;2023-05-19T13:51:17;19.63;;;5.60;;
32734;SDS011;19112;51.076;3.706;2023-05-19T13:53:43;22.52;;;7.38;;
32734;SDS011;19112;51.076;3.706;2023-05-19T13:56:08;21.85;;;7.13;;
32734;SDS011;19112;51.076;3.706;2023-05-19T13:58:34;21.35;;;7.25;;
32734;SDS011;19112;51.076;3.706;2023-05-19T14:01:00;16.77;;;5.88;;
32734;SDS011;19112;51.076;3.706;2023-05-19T14:03:26;15.95;;;5.78;;
32734;SDS011;19112;51.076;3.706;2023-05-19T14:05:52;20.35;;;6.22;;
32734;SDS011;19112;51.076;3.706;2023-05-19T14:08:18;18.83;;;6.03;;
32734;SDS011;19112;51.076;3.706;2023-05-19T14:10:45;19.42;;;5.93;;
32734;SDS011;19112;51.076;3.706;2023-05-19T14:13:11;22.02;;;7.40;;
32734;SDS011;19112;51.076;3.706;2023-05-19T14:15:37;20.95;;;6.32;;
32734;SDS011;19112;51.076;3.706;2023-05-19T14:18:03;18.35;;;6.57;;
32734;SDS011;19112;51.076;3.706;2023-05-19T14:20:29;18.27;;;6.07;;
32734;SDS011;19112;51.076;3.706;2023-05-19T14:22:55;16.30;;;5.15;;
32734;SDS011;19112;51.076;3.706;2023-05-19T14:25:21;24.00;;;5.70;;
32734;SDS011;19112;51.076;3.706;2023-05-19T14:27:47;21.15;;;6.47;;
32734;SDS011;19112;51.076;3.706;2023-05-19T14:30:13;15.63;;;5.97;;
32734;SDS011;19112;51.076;3.706;2023-05-19T14:32:39;19.35;;;5.78;;
32734;SDS011;19112;51.076;3.706;2023-05-19T14:35:05;15.48;;;5.40;;
32734;SDS011;19112;51.076;3.706;2023-05-19T14:37:31;19.48;;;6.15;;
32734;SDS011;19112;51.076;3.706;2023-05-19T14:39:57;20.45;;;5.65;;
32734;SDS011;19112;51.076;3.706;2023-05-19T14:42:23;17.55;;;6.10;;
32734;SDS011;19112;51.076;3.706;2023-05-19T14:44:49;18.08;;;5.50;;
32734;SDS011;19112;51.076;3.706;2023-05-19T14:47:15;14.45;;;4.97;;
32734;SDS011;19112;51.076;3.706;2023-05-19T14:49:41;18.20;;;6.22;;
32734;SDS011;19112;51.076;3.706;2023-05-19T14:52:06;14.52;;;4.82;;
32734;SDS011;19112;51.076;3.706;2023-05-19T14:54:32;21.48;;;5.18;;
32734;SDS011;19112;51.076;3.706;2023-05-19T14:56:58;17.50;;;5.93;;
32734;SDS011;19112;51.076;3.706;2023-05-19T14:59:25;19.05;;;6.10;;
32734;SDS011;19112;51.076;3.706;2023-05-19T15:01:54;20.15;;;6.05;;
32734;SDS011;19112;51.076;3.706;2023-05-19T15:04:20;18.60;;;6.85;;